Time;durP1;ratioP1;P1;durP2;ratioP2;P2;SDS_P1;SDS_P2;PMS_P1;PMS_P2;Temp;Humidity;BMP_temperature;BMP_pressure;BME280_temperature;BME280_humidity;BME280_pressure;Samples;Min_cycle;Max_cycle;Signal;HPM_P1;HPM_P2
2022/01/18 00:01:38;;;;;;;9.50;7.65;;;;;;;3.79;100.00;97967.94;4969028;28;20083;-57
2022/01/18 00:04:07;;;;;;;11.18;7.18;;;;;;;3.77;100.00;97964.53;4975713;28;20540;-53
2022/01/18 00:06:38;;;;;;;10.70;7.13;;;;;;;3.78;100.00;97967.97;4973773;28;20461;-53
2022/01/18 00:09:09;;;;;;;9.27;7.32;;;;;;;3.65;100.00;97961.56;4970262;28;20070;-55
2022/01/18 00:11:44;;;;;;;10.52;8.10;;;;;;;3.81;100.00;97966.09;4972572;28;20130;-52
2022/01/18 00:14:25;;;;;;;10.48;7.38;;;;;;;3.83;100.00;97967.81;4971611;28;20070;-51
2022/01/18 00:17:16;;;;;;;13.93;7.72;;;;;;;3.86;100.00;97981.56;4964236;28;20090;-49
2022/01/18 00:19:53;;;;;;;10.80;7.53;;;;;;;3.85;100.00;97977.25;4966040;28;20548;-57
2022/01/18 00:22:22;;;;;;;9.95;7.82;;;;;;;3.84;100.00;97974.72;4967197;28;20085;-54
2022/01/18 00:24:53;;;;;;;9.85;7.80;;;;;;;3.76;100.00;97978.50;4973327;28;20073;-52
2022/01/18 00:27:27;;;;;;;9.82;7.60;;;;;;;3.87;100.00;97988.47;4966271;28;20065;-51
2022/01/18 00:30:07;;;;;;;10.93;8.13;;;;;;;3.96;100.00;97979.41;4961452;28;20069;-50
2022/01/18 00:32:48;;;;;;;10.82;8.27;;;;;;;3.91;100.00;97987.41;4962268;28;20063;-47
2022/01/18 00:35:17;;;;;;;10.32;8.25;;;;;;;3.93;100.00;97985.59;4961032;28;20074;-49
2022/01/18 00:37:52;;;;;;;10.55;8.23;;;;;;;3.83;100.00;97986.91;4963741;28;20623;-54
2022/01/18 00:40:22;;;;;;;13.95;8.80;;;;;;;3.94;100.00;97995.13;4959804;28;20139;-49
2022/01/18 00:42:51;;;;;;;10.82;7.93;;;;;;;3.98;100.00;97991.47;4967855;28;20073;-48
2022/01/18 00:45:19;;;;;;;9.63;6.90;;;;;;;3.92;100.00;97999.56;4948663;28;20696;-49
2022/01/18 00:47:48;;;;;;;9.88;6.97;;;;;;;3.89;100.00;97994.47;4955506;28;20063;-51
2022/01/18 00:50:17;;;;;;;10.80;7.82;;;;;;;3.97;100.00;97997.59;4962860;28;20078;-48
2022/01/18 00:52:50;;;;;;;10.40;8.10;;;;;;;3.99;100.00;98005.34;4971826;28;20082;-51
2022/01/18 00:55:19;;;;;;;9.75;7.50;;;;;;;3.90;100.00;98000.53;4970080;28;20075;-51
2022/01/18 00:57:49;;;;;;;8.60;6.55;;;;;;;3.90;100.00;98006.63;4968273;28;20066;-49
2022/01/18 01:00:18;;;;;;;10.93;7.25;;;;;;;3.91;100.00;98010.91;4966375;28;20508;-49
2022/01/18 01:02:46;;;;;;;10.77;7.20;;;;;;;3.92;100.00;98019.59;4968531;28;20118;-55
2022/01/18 01:05:15;;;;;;;12.85;8.20;;;;;;;4.04;100.00;98013.84;4968318;28;20074;-51
2022/01/18 01:07:43;;;;;;;11.43;7.88;;;;;;;4.08;100.00;98022.41;4968873;28;20082;-49
2022/01/18 01:10:32;;;;;;;11.35;8.60;;;;;;;4.08;100.00;98027.63;4966781;28;20083;-49
2022/01/18 01:13:02;;;;;;;9.43;7.22;;;;;;;4.04;100.00;98029.50;4947843;28;20522;-53
2022/01/18 01:15:34;;;;;;;14.50;7.90;;;;;;;4.04;100.00;98035.56;4962011;28;20066;-47
2022/01/18 01:18:19;;;;;;;11.52;8.70;;;;;;;4.18;100.00;98037.59;4969681;28;20042;-47
2022/01/18 01:35:07;;;;;;;11.82;8.07;;;;;;;4.02;100.00;98062.66;4944325;28;20039;-55
2022/01/18 01:43:20;;;;;;;11.80;8.55;;;;;;;4.15;100.00;98061.22;4938306;28;20570;-55
2022/01/18 01:45:51;;;;;;;14.10;9.30;;;;;;;4.14;100.00;98051.69;4966311;28;20079;-52
2022/01/18 01:48:21;;;;;;;13.45;8.85;;;;;;;3.97;100.00;98049.81;4968933;28;20079;-53
2022/01/18 01:51:02;;;;;;;11.73;9.05;;;;;;;3.93;100.00;98047.41;4969245;28;20458;-48
2022/01/18 01:53:31;;;;;;;11.68;8.82;;;;;;;4.02;100.00;98037.38;4964801;28;20146;-51
2022/01/18 01:56:00;;;;;;;12.05;8.95;;;;;;;4.02;100.00;98036.56;4963116;28;20059;-50
2022/01/18 01:58:29;;;;;;;13.57;8.43;;;;;;;4.00;100.00;98034.03;4974011;28;20084;-49
2022/01/18 02:01:05;;;;;;;11.10;8.50;;;;;;;3.97;100.00;98034.16;4965857;28;20081;-49
2022/01/18 02:03:34;;;;;;;11.77;8.60;;;;;;;4.00;100.00;98022.72;4967116;28;20472;-50
2022/01/18 02:06:03;;;;;;;12.48;7.97;;;;;;;3.89;100.00;98020.59;4966092;28;20066;-52
2022/01/18 02:08:32;;;;;;;12.82;8.80;;;;;;;3.98;100.00;98033.22;4968854;28;20688;-49
2022/01/18 02:11:00;;;;;;;13.77;9.77;;;;;;;4.03;100.00;98036.50;4964788;28;20078;-53
2022/01/18 02:13:31;;;;;;;12.45;9.13;;;;;;;4.04;100.00;98024.28;4969439;28;20081;-53
2022/01/18 02:21:45;;;;;;;13.02;9.02;;;;;;;3.99;100.00;98034.06;4969367;28;20078;-52
2022/01/18 02:21:56;;;;;;;13.02;9.48;;;;;;;3.84;100.00;98022.53;4948172;28;20047;-54
2022/01/18 02:24:25;;;;;;;12.10;8.68;;;;;;;4.00;100.00;98012.28;4963532;28;20539;-53
2022/01/18 02:26:53;;;;;;;13.60;8.68;;;;;;;3.92;100.00;98025.69;4964370;28;20051;-55
2022/01/18 02:29:22;;;;;;;12.75;9.43;;;;;;;3.92;100.00;98015.25;4969760;28;20067;-56
2022/01/18 02:31:51;;;;;;;12.57;8.98;;;;;;;3.89;100.00;98012.75;4962570;28;20078;-56
2022/01/18 02:34:21;;;;;;;13.10;9.50;;;;;;;3.89;100.00;98009.28;4971118;28;20089;-54
2022/01/18 02:36:50;;;;;;;12.80;9.53;;;;;;;3.92;100.00;98011.75;4965776;28;20074;-48
2022/01/18 02:39:22;;;;;;;12.52;8.55;;;;;;;3.78;100.00;98015.78;4969911;28;20513;-55
2022/01/18 02:41:55;;;;;;;13.15;9.05;;;;;;;3.90;100.00;98019.66;4964572;28;20074;-54
2022/01/18 02:44:24;;;;;;;13.95;9.18;;;;;;;3.91;100.00;98023.13;4965818;28;20078;-48
2022/01/18 02:46:53;;;;;;;14.75;10.48;;;;;;;3.89;100.00;98017.09;4970624;28;20093;-52
2022/01/18 02:49:21;;;;;;;13.25;9.20;;;;;;;3.78;100.00;98018.41;4968029;28;20097;-49
2022/01/18 02:51:50;;;;;;;13.70;9.23;;;;;;;3.80;100.00;98020.97;4963767;28;20061;-47
2022/01/18 02:54:20;;;;;;;11.50;8.55;;;;;;;3.75;100.00;98022.91;4969649;28;20070;-52
2022/01/18 02:56:54;;;;;;;12.40;8.25;;;;;;;3.75;100.00;98033.34;4967971;28;20732;-50
2022/01/18 02:59:31;;;;;;;14.80;10.43;;;;;;;3.79;100.00;98032.31;4969221;28;20461;-50
2022/01/18 03:04:48;;;;;;;13.65;9.68;;;;;;;3.63;100.00;98034.69;4969322;28;20077;-50
2022/01/18 03:07:16;;;;;;;;;;;;;;;3.80;100.00;98042.69;4970200;28;20082;-51
2022/01/18 03:09:46;;;;;;;14.93;9.60;;;;;;;3.84;100.00;98037.34;4963026;28;19961;-55
2022/01/18 03:12:16;;;;;;;14.68;10.65;;;;;;;3.90;100.00;98037.09;4970166;28;20525;-50
2022/01/18 03:14:45;;;;;;;16.20;9.80;;;;;;;3.78;100.00;98031.44;4977573;28;20606;-53
2022/01/18 03:17:14;;;;;;;16.77;11.48;;;;;;;3.79;100.00;98034.94;4965955;28;20482;-53
2022/01/18 03:19:43;;;;;;;16.08;10.70;;;;;;;3.89;100.00;98041.47;4970148;28;20094;-53
2022/01/18 03:22:11;;;;;;;17.17;11.13;;;;;;;3.95;100.00;98042.94;4971143;28;20104;-53
2022/01/18 03:24:49;;;;;;;16.00;11.30;;;;;;;3.91;100.00;98044.84;4962872;28;20538;-47
2022/01/18 03:30:08;;;;;;;17.30;12.02;;;;;;;4.03;100.00;98048.72;4961529;28;20081;-53
2022/01/18 03:32:37;;;;;;;16.13;10.23;;;;;;;3.91;100.00;98042.22;4963665;28;20078;-50
2022/01/18 03:35:09;;;;;;;18.05;11.13;;;;;;;3.89;100.00;98044.06;4963415;28;20082;-48
2022/01/18 03:37:39;;;;;;;15.60;10.68;;;;;;;3.99;100.00;98044.50;4963152;28;20501;-52
2022/01/18 03:40:11;;;;;;;16.55;11.77;;;;;;;4.00;100.00;98041.84;4975526;28;20463;-51
2022/01/18 03:42:42;;;;;;;14.55;10.45;;;;;;;3.91;100.00;98047.44;4975161;28;20067;-51
2022/01/18 03:45:13;;;;;;;17.50;11.32;;;;;;;4.02;100.00;98053.06;4967077;28;20074;-49
2022/01/18 03:47:42;;;;;;;15.40;10.40;;;;;;;3.91;100.00;98050.06;4967271;28;20073;-50
2022/01/18 03:50:12;;;;;;;18.30;11.77;;;;;;;4.10;100.00;98054.53;4969448;28;20563;-51
2022/01/18 03:52:41;;;;;;;17.92;12.00;;;;;;;4.11;100.00;98048.38;4968790;28;20086;-54
2022/01/18 03:55:12;;;;;;;15.60;10.95;;;;;;;3.97;100.00;98055.03;4972836;28;20087;-52
2022/01/18 03:57:41;;;;;;;19.05;12.70;;;;;;;4.12;100.00;98061.34;4972535;28;20476;-53
2022/01/18 04:00:13;;;;;;;21.42;14.48;;;;;;;4.13;100.00;98059.59;4973439;28;20086;-52
2022/01/18 04:02:41;;;;;;;17.55;11.35;;;;;;;3.99;100.00;98054.94;4968648;28;20541;-52
2022/01/18 04:05:11;;;;;;;17.83;11.63;;;;;;;4.10;100.00;98060.59;4967580;28;20079;-48
2022/01/18 04:07:40;;;;;;;18.37;12.27;;;;;;;4.11;100.00;98058.81;4968773;28;20518;-52
2022/01/18 04:10:10;;;;;;;20.85;13.38;;;;;;;4.12;100.00;98055.28;4972235;28;20086;-50
2022/01/18 04:12:39;;;;;;;17.45;10.82;;;;;;;4.05;100.00;98063.38;4966019;28;20069;-50
2022/01/18 04:15:11;;;;;;;17.85;12.45;;;;;;;4.03;100.00;98069.59;4970309;28;20545;-49
2022/01/18 04:18:03;;;;;;;18.67;12.05;;;;;;;4.02;100.00;98060.88;4972808;28;20059;-54
2022/01/18 04:26:52;;;;;;;19.98;12.35;;;;;;;4.01;100.00;98066.19;4966816;28;20811;-49
2022/01/18 04:28:54;;;;;;;21.30;13.15;;;;;;;4.11;100.00;98061.44;4968262;28;20082;-53
2022/01/18 04:31:25;;;;;;;22.45;12.75;;;;;;;4.11;100.00;98067.50;4971354;28;20089;-49
2022/01/18 04:33:54;;;;;;;22.33;13.80;;;;;;;4.07;100.00;98071.16;4968488;28;20544;-50
2022/01/18 04:36:23;;;;;;;21.02;13.63;;;;;;;4.12;100.00;98074.41;4966719;28;20088;-53
2022/01/18 04:38:52;;;;;;;18.70;12.57;;;;;;;4.17;100.00;98079.44;4973920;28;20068;-51
2022/01/18 04:41:26;;;;;;;21.98;14.15;;;;;;;4.16;100.00;98085.56;4968330;28;20084;-48
2022/01/18 04:44:14;;;;;;;23.27;14.98;;;;;;;3.91;100.00;98075.31;4964871;28;20086;-48
2022/01/18 04:49:30;;;;;;;23.33;14.73;;;;;;;3.98;100.00;98087.19;4968659;28;20104;-50
2022/01/18 04:51:59;;;;;;;19.95;12.82;;;;;;;3.77;100.00;98089.78;4971856;28;20057;-53
2022/01/18 04:54:30;;;;;;;23.13;13.88;;;;;;;3.87;100.00;98092.00;4967395;28;20078;-53
2022/01/18 04:59:44;;;;;;;20.52;13.43;;;;;;;3.70;100.00;98100.53;4969757;28;20770;-51
2022/01/18 05:02:14;;;;;;;21.20;12.93;;;;;;;3.45;100.00;98096.28;4968364;28;20081;-53
2022/01/18 05:04:43;;;;;;;23.17;14.07;;;;;;;3.35;100.00;98094.94;4967082;28;20092;-53
2022/01/18 05:07:14;;;;;;;20.80;13.35;;;;;;;3.30;100.00;98092.53;4966873;28;20533;-52
2022/01/18 05:09:45;;;;;;;25.00;15.38;;;;;;;3.21;100.00;98092.88;4973340;28;20598;-48
2022/01/18 05:12:20;;;;;;;25.48;13.80;;;;;;;3.17;100.00;98099.13;4965655;28;20078;-51
2022/01/18 05:14:49;;;;;;;21.52;13.30;;;;;;;3.08;100.00;98102.91;4965063;28;20058;-50
2022/01/18 05:17:37;;;;;;;17.90;12.02;;;;;;;2.91;100.00;98100.09;4964532;28;20375;-51
2022/01/18 05:20:37;;;;;;;24.10;13.43;;;;;;;2.94;100.00;98097.38;4970105;28;20066;-53
2022/01/18 05:23:04;;;;;;;20.42;12.75;;;;;;;2.85;100.00;98095.09;4969782;28;20477;-49
2022/01/18 05:25:35;;;;;;;27.92;13.68;;;;;;;2.79;100.00;98084.94;4964479;28;20075;-48
2022/01/18 05:28:05;;;;;;;26.67;13.95;;;;;;;2.66;100.00;98097.53;4958835;28;20598;-48
2022/01/18 05:30:34;;;;;;;21.30;13.88;;;;;;;2.74;100.00;98110.28;4963258;28;20592;-53
2022/01/18 05:33:10;;;;;;;22.67;13.40;;;;;;;2.68;100.00;98108.72;4963227;28;20062;-52
2022/01/18 05:35:38;;;;;;;24.13;14.40;;;;;;;2.69;100.00;98107.00;4960624;28;20074;-50
2022/01/18 05:38:07;;;;;;;21.25;13.80;;;;;;;2.74;100.00;98112.88;4965709;28;20094;-49
2022/01/18 05:40:37;;;;;;;23.67;13.80;;;;;;;2.79;100.00;98106.59;4965130;28;20078;-55
2022/01/18 05:43:06;;;;;;;;;;;;;;;2.59;100.00;98112.53;4964068;28;20389;-55
2022/01/18 05:45:35;;;;;;;21.67;13.50;;;;;;;2.60;100.00;98114.22;4960183;28;19957;-47
2022/01/18 05:48:04;;;;;;;24.63;13.63;;;;;;;2.61;100.00;98117.66;4964235;28;20073;-47
2022/01/18 05:50:35;;;;;;;26.98;12.90;;;;;;;2.62;100.00;98114.19;4960017;28;20470;-52
2022/01/18 05:53:03;;;;;;;22.70;14.43;;;;;;;2.79;100.00;98114.44;4959780;28;20096;-54
2022/01/18 05:55:33;;;;;;;21.98;13.23;;;;;;;2.84;100.00;98124.66;4967609;28;20809;-53
2022/01/18 05:58:01;;;;;;;23.33;14.18;;;;;;;2.67;100.00;98122.66;4966915;28;20513;-51
2022/01/18 06:00:31;;;;;;;27.67;15.43;;;;;;;2.51;100.00;98121.50;4962993;28;20093;-51
2022/01/18 06:03:11;;;;;;;22.13;13.50;;;;;;;2.47;100.00;98122.53;4959252;28;20063;-51
2022/01/18 06:08:28;;;;;;;22.95;14.05;;;;;;;2.38;100.00;98132.38;4961889;28;20194;-51
2022/01/18 06:10:56;;;;;;;25.10;14.48;;;;;;;2.44;100.00;98131.28;4966007;28;21202;-54
2022/01/18 06:13:24;;;;;;;24.75;14.57;;;;;;;2.49;100.00;98133.75;4964921;28;20097;-51
2022/01/18 06:15:53;;;;;;;26.33;14.43;;;;;;;2.43;100.00;98137.41;4967500;28;20454;-52
2022/01/18 06:18:22;;;;;;;22.50;14.38;;;;;;;2.58;100.00;98134.28;4969716;28;20074;-55
2022/01/18 06:20:51;;;;;;;28.58;14.77;;;;;;;2.55;100.00;98142.19;4971769;28;20082;-51
2022/01/18 06:23:21;;;;;;;24.25;14.68;;;;;;;2.74;100.00;98146.75;4967206;28;20078;-50
2022/01/18 06:25:49;;;;;;;23.77;14.10;;;;;;;2.83;100.00;98156.84;4967626;28;20087;-54
2022/01/18 06:28:18;;;;;;;23.92;14.82;;;;;;;2.84;100.00;98154.16;4977612;28;20089;-51
2022/01/18 06:30:46;;;;;;;24.75;15.25;;;;;;;2.90;100.00;98160.94;4970636;28;20057;-51
2022/01/18 06:33:15;;;;;;;23.77;13.57;;;;;;;2.87;100.00;98162.81;4964755;28;20144;-50
2022/01/18 06:35:43;;;;;;;24.05;13.98;;;;;;;2.94;100.00;98162.50;4967052;28;20078;-55
2022/01/18 06:38:13;;;;;;;24.10;14.70;;;;;;;3.13;100.00;98170.50;4965185;28;20081;-52
2022/01/18 06:40:42;;;;;;;28.45;14.55;;;;;;;3.18;100.00;98165.13;4961251;28;20086;-53
2022/01/18 06:43:11;;;;;;;26.35;14.80;;;;;;;3.24;100.00;98170.13;4971962;28;20090;-52
2022/01/18 06:45:39;;;;;;;26.45;15.73;;;;;;;3.34;100.00;98179.31;4971141;28;20058;-56
2022/01/18 06:48:08;;;;;;;21.65;14.45;;;;;;;3.41;100.00;98180.78;4971964;28;20062;-52
2022/01/18 06:50:37;;;;;;;23.27;14.75;;;;;;;3.47;100.00;98193.56;4967571;28;20078;-56
2022/01/18 06:53:05;;;;;;;25.13;14.90;;;;;;;3.62;100.00;98199.13;4978554;28;20059;-55
2022/01/18 06:55:36;;;;;;;25.85;15.65;;;;;;;3.72;100.00;98205.69;4975012;28;20066;-47
2022/01/18 06:58:05;;;;;;;24.92;15.32;;;;;;;3.69;100.00;98206.66;4973490;28;21534;-51
2022/01/18 07:00:33;;;;;;;24.15;15.68;;;;;;;3.65;100.00;98212.03;4970920;28;20078;-53
2022/01/18 07:03:02;;;;;;;23.77;14.23;;;;;;;3.61;100.00;98211.28;4974915;28;20529;-50
2022/01/18 07:05:32;;;;;;;25.60;14.63;;;;;;;3.60;100.00;98203.53;4971103;28;20458;-52
2022/01/18 07:08:02;;;;;;;24.70;14.73;;;;;;;3.51;100.00;98208.22;4973763;28;20382;-56
2022/01/18 07:10:31;;;;;;;21.67;13.70;;;;;;;3.51;100.00;98210.81;4979740;28;20660;-50
2022/01/18 07:13:01;;;;;;;25.67;14.68;;;;;;;3.42;100.00;98216.38;4984285;28;20081;-55
2022/01/18 07:15:30;;;;;;;22.65;13.98;;;;;;;3.48;100.00;98213.53;4973941;28;20121;-53
2022/01/18 07:17:59;;;;;;;25.23;14.80;;;;;;;3.29;100.00;98209.91;4975869;28;20085;-50
2022/01/18 07:20:28;;;;;;;30.52;15.65;;;;;;;3.33;100.00;98206.25;4973369;28;20077;-51
2022/01/18 07:22:57;;;;;;;26.08;15.05;;;;;;;3.26;100.00;98210.84;4972660;28;20793;-47
2022/01/18 07:25:26;;;;;;;25.20;14.75;;;;;;;3.29;100.00;98217.72;4974326;28;20073;-50
2022/01/18 07:27:55;;;;;;;24.90;14.98;;;;;;;3.44;100.00;98224.13;4978406;28;20069;-53
2022/01/18 07:30:24;;;;;;;26.08;15.75;;;;;;;3.42;100.00;98233.78;4972870;28;20070;-50
2022/01/18 07:32:53;;;;;;;26.25;15.23;;;;;;;3.57;100.00;98227.97;4964671;28;20070;-51
2022/01/18 07:35:21;;;;;;;23.75;14.50;;;;;;;3.54;100.00;98228.09;4969945;28;20824;-53
2022/01/18 07:37:50;;;;;;;25.67;14.98;;;;;;;3.44;100.00;98230.22;4981993;28;20474;-48
2022/01/18 07:40:19;;;;;;;25.90;15.68;;;;;;;3.40;100.00;98235.56;4969305;28;20093;-46
2022/01/18 07:42:47;;;;;;;25.42;15.50;;;;;;;3.66;100.00;98229.41;4971016;28;20074;-50
2022/01/18 07:45:21;;;;;;;24.85;16.40;;;;;;;3.50;100.00;98240.38;4983876;28;20442;-47
2022/01/18 07:47:52;;;;;;;28.83;15.13;;;;;;;3.80;100.00;98243.59;4971908;28;20478;-47
2022/01/18 07:50:20;;;;;;;27.35;15.48;;;;;;;3.78;100.00;98248.03;4971150;28;20058;-50
2022/01/18 07:52:49;;;;;;;27.33;15.95;;;;;;;4.07;100.00;98246.06;4971580;28;20458;-50
2022/01/18 07:55:18;;;;;;;24.98;15.40;;;;;;;4.19;100.00;98250.78;4975979;28;20086;-47
2022/01/18 07:57:46;;;;;;;22.50;14.27;;;;;;;4.17;100.00;98251.78;4966808;28;20082;-50
2022/01/18 08:00:16;;;;;;;24.15;14.82;;;;;;;4.14;100.00;98250.13;4964390;28;20315;-50
2022/01/18 08:02:46;;;;;;;25.88;15.35;;;;;;;4.16;100.00;98252.66;4971103;28;20066;-49
2022/01/18 08:05:16;;;;;;;24.88;15.57;;;;;;;4.23;100.00;98254.13;4977540;28;20078;-50
2022/01/18 08:07:44;;;;;;;23.38;14.25;;;;;;;4.23;100.00;98260.22;4966714;28;20071;-53
2022/01/18 08:10:16;;;;;;;22.90;15.65;;;;;;;4.27;100.00;98253.13;4966579;28;20082;-55
2022/01/18 08:12:44;;;;;;;22.33;14.75;;;;;;;4.38;100.00;98253.53;4971752;28;20042;-53
2022/01/18 08:15:17;;;;;;;22.23;14.60;;;;;;;4.28;100.00;98253.03;4965585;28;20066;-47
2022/01/18 08:17:54;;;;;;;24.80;14.60;;;;;;;3.98;100.00;98260.31;4966918;28;20070;-51
2022/01/18 08:20:24;;;;;;;23.73;14.65;;;;;;;4.24;100.00;98250.63;4971253;28;20054;-47
2022/01/18 08:22:53;;;;;;;21.90;14.05;;;;;;;4.38;100.00;98258.75;4974749;28;20466;-50
2022/01/18 08:25:23;;;;;;;22.45;14.82;;;;;;;4.45;100.00;98254.13;4968923;28;20089;-48
2022/01/18 08:27:51;;;;;;;25.87;14.17;;;;;;;4.42;100.00;98259.47;4967233;28;20081;-50
2022/01/18 08:30:20;;;;;;;23.17;14.90;;;;;;;4.48;100.00;98254.84;4970519;28;20067;-54
2022/01/18 08:32:49;;;;;;;22.60;14.15;;;;;;;4.47;100.00;98250.56;4970517;28;20149;-54
2022/01/18 08:35:18;;;;;;;24.80;15.23;;;;;;;4.63;100.00;98252.53;4965463;28;20062;-53
2022/01/18 08:37:48;;;;;;;25.15;14.80;;;;;;;4.77;100.00;98255.41;4975853;28;20083;-52
2022/01/18 08:40:17;;;;;;;23.80;14.98;;;;;;;4.71;100.00;98248.69;4970992;28;20102;-54
2022/01/18 08:42:45;;;;;;;23.08;14.13;;;;;;;4.95;100.00;98254.59;4966108;28;20066;-49
2022/01/18 08:45:14;;;;;;;22.60;14.43;;;;;;;4.90;100.00;98264.44;4972919;28;20568;-51
2022/01/18 08:47:48;;;;;;;22.45;14.73;;;;;;;5.02;100.00;98270.88;4975770;28;20070;-49
2022/01/18 08:50:19;;;;;;;25.67;14.30;;;;;;;5.04;100.00;98268.22;4969292;28;20073;-52
2022/01/18 08:52:51;;;;;;;25.65;14.73;;;;;;;4.81;100.00;98270.03;4967317;28;20078;-55
2022/01/18 08:55:20;;;;;;;21.67;14.27;;;;;;;5.17;100.00;98258.94;4973710;28;20081;-52
2022/01/18 08:57:49;;;;;;;24.40;14.82;;;;;;;5.26;100.00;98265.50;4965424;28;20299;-53
2022/01/18 09:00:19;;;;;;;25.42;15.63;;;;;;;5.18;100.00;98266.69;4968559;28;20085;-50
2022/01/18 09:02:48;;;;;;;24.75;14.38;;;;;;;5.26;100.00;98266.38;4967195;28;20659;-53
2022/01/18 09:05:17;;;;;;;24.38;14.23;;;;;;;5.07;100.00;98278.56;4975916;28;20476;-57
2022/01/18 09:07:46;;;;;;;24.70;14.20;;;;;;;5.04;100.00;98273.44;4965742;28;20093;-55
2022/01/18 09:10:16;;;;;;;22.55;13.90;;;;;;;5.24;100.00;98281.28;4968750;28;20462;-51
2022/01/18 09:12:44;;;;;;;21.08;14.43;;;;;;;5.59;100.00;98269.25;4968100;28;20066;-50
2022/01/18 09:15:13;;;;;;;24.02;15.18;;;;;;;5.75;100.00;98279.00;4972191;28;20140;-50
2022/01/18 09:17:42;;;;;;;20.65;13.48;;;;;;;5.72;100.00;98282.66;4966365;28;20055;-51
2022/01/18 09:20:13;;;;;;;25.35;15.07;;;;;;;5.82;100.00;98286.53;4984663;28;20074;-53
2022/01/18 09:22:44;;;;;;;23.60;13.60;;;;;;;6.00;100.00;98284.88;4972547;28;20093;-46
2022/01/18 09:25:16;;;;;;;20.08;12.93;;;;;;;5.61;100.00;98284.88;4964975;28;20097;-48
2022/01/18 09:27:45;;;;;;;23.92;13.57;;;;;;;5.87;100.00;98287.16;4967726;28;20088;-51
2022/01/18 09:30:15;;;;;;;20.65;12.55;;;;;;;5.90;100.00;98287.03;4969166;28;20079;-55
2022/01/18 09:32:44;;;;;;;19.35;12.57;;;;;;;5.89;100.00;98284.50;4977513;28;20545;-52
2022/01/18 09:35:13;;;;;;;22.45;12.60;;;;;;;5.79;100.00;98297.16;4964232;28;20070;-49
2022/01/18 09:37:42;;;;;;;19.45;12.50;;;;;;;5.92;100.00;98290.47;4968638;28;20089;-53
2022/01/18 09:40:14;;;;;;;22.20;12.60;;;;;;;6.00;100.00;98286.66;4967936;28;20101;-54
2022/01/18 09:42:45;;;;;;;19.83;12.18;;;;;;;5.75;100.00;98289.50;4968839;28;20070;-53
2022/01/18 09:45:16;;;;;;;20.00;11.93;;;;;;;5.62;100.00;98292.69;4968889;28;20074;-52
2022/01/18 09:47:47;;;;;;;20.13;11.73;;;;;;;6.30;100.00;98293.06;4968657;28;20055;-49
2022/01/18 09:50:17;;;;;;;20.25;10.98;;;;;;;6.56;100.00;98294.41;4976112;28;20532;-54
2022/01/18 09:52:51;;;;;;;19.02;11.30;;;;;;;6.78;100.00;98293.38;4964985;28;20047;-55
2022/01/18 09:55:19;;;;;;;19.70;11.27;;;;;;;6.25;100.00;98297.66;4967084;28;20062;-49
2022/01/18 09:57:50;;;;;;;18.38;10.88;;;;;;;5.98;100.00;98283.25;4964842;28;20086;-56
2022/01/18 10:00:19;;;;;;;17.13;10.73;;;;;;;6.02;100.00;98290.03;4976141;28;20629;-54
2022/01/18 10:02:48;;;;;;;21.13;11.13;;;;;;;6.42;100.00;98292.47;4964868;28;20548;-50
2022/01/18 10:05:19;;;;;;;17.70;10.63;;;;;;;6.16;100.00;98290.25;4973082;28;20062;-56
2022/01/18 10:07:56;;;;;;;19.10;10.80;;;;;;;6.57;100.00;98290.03;4967020;28;20666;-47
2022/01/18 10:10:36;;;;;;;20.13;11.60;;;;;;;6.99;100.00;98286.22;4968101;28;20077;-49
2022/01/18 10:13:06;;;;;;;16.37;10.37;;;;;;;6.55;100.00;98278.78;4967636;28;20070;-51
2022/01/18 10:15:35;;;;;;;16.70;10.40;;;;;;;6.83;100.00;98281.72;4968852;28;20497;-50
2022/01/18 10:18:05;;;;;;;19.65;10.40;;;;;;;6.66;100.00;98279.09;4974721;28;20062;-51
2022/01/18 10:20:48;;;;;;;18.60;10.02;;;;;;;6.88;100.00;98281.50;4965045;28;20454;-49
2022/01/18 10:23:23;;;;;;;17.48;10.10;;;;;;;7.51;100.00;98275.66;4959539;28;20465;-55
2022/01/18 10:25:52;;;;;;;16.98;9.40;;;;;;;7.44;100.00;98269.88;4966480;28;20090;-54
2022/01/18 10:28:35;;;;;;;14.07;8.98;;;;;;;7.31;100.00;98271.44;4974320;28;20092;-50
2022/01/18 10:31:24;;;;;;;17.40;10.25;;;;;;;7.31;100.00;98264.41;4965214;28;21562;-53
2022/01/18 10:34:11;;;;;;;19.63;8.27;;;;;;;7.43;100.00;98268.16;4966445;28;20093;-47
2022/01/18 10:36:53;;;;;;;22.25;8.82;;;;;;;7.68;100.00;98254.59;4969928;28;20074;-50
2022/01/18 10:39:23;;;;;;;16.10;7.65;;;;;;;7.83;100.00;98248.50;4966622;28;20082;-51
2022/01/18 10:41:52;;;;;;;17.88;7.82;;;;;;;8.13;100.00;98241.66;4971571;28;20062;-51
2022/01/18 10:44:23;;;;;;;19.08;8.65;;;;;;;8.22;100.00;98238.50;4964646;28;20062;-53
2022/01/18 10:46:54;;;;;;;16.77;8.23;;;;;;;7.98;100.00;98238.97;4972206;28;20074;-53
2022/01/18 10:49:26;;;;;;;;;;;;;;;8.18;100.00;98237.00;4967555;28;20548;-54
2022/01/18 10:51:59;;;;;;;19.40;9.10;;;;;;;8.27;100.00;98224.19;4966280;28;19957;-54
2022/01/18 10:54:39;;;;;;;17.70;8.88;;;;;;;8.21;100.00;98232.41;4967741;28;20062;-50
2022/01/18 10:57:11;;;;;;;16.65;9.55;;;;;;;7.98;100.00;98232.84;4964629;28;20059;-50
2022/01/18 10:59:41;;;;;;;16.00;8.45;;;;;;;8.20;100.00;98222.00;4967159;28;20066;-57
2022/01/18 11:02:14;;;;;;;14.70;7.30;;;;;;;8.13;100.00;98218.88;4961795;28;20551;-48
2022/01/18 11:04:45;;;;;;;15.68;7.50;;;;;;;8.28;100.00;98217.97;4957641;28;20082;-52
2022/01/18 11:07:15;;;;;;;13.02;7.15;;;;;;;8.35;100.00;98213.22;4971189;28;20062;-49
2022/01/18 11:09:43;;;;;;;12.95;6.90;;;;;;;8.48;100.00;98210.78;4966742;28;20070;-48
2022/01/18 11:12:12;;;;;;;12.00;6.30;;;;;;;8.58;100.00;98208.47;4962761;28;20517;-55
2022/01/18 11:14:46;;;;;;;15.13;6.07;;;;;;;8.94;100.00;98210.72;4968617;28;20455;-50
2022/01/18 11:17:22;;;;;;;11.02;5.03;;;;;;;8.38;100.00;98212.25;4980275;28;20168;-50
2022/01/18 11:19:56;;;;;;;9.52;5.03;;;;;;;8.16;100.00;98199.47;4962868;28;20537;-52
2022/01/18 11:22:26;;;;;;;12.75;4.95;;;;;;;8.41;100.00;98205.03;4969590;28;20151;-50
2022/01/18 11:24:58;;;;;;;10.55;5.43;;;;;;;8.15;100.00;98197.75;4963681;28;20066;-54
2022/01/18 11:27:29;;;;;;;13.65;6.28;;;;;;;8.22;100.00;98189.41;4964803;28;20086;-54
2022/01/18 11:29:58;;;;;;;14.40;6.22;;;;;;;7.95;100.00;98186.59;4961827;28;20137;-57
2022/01/18 11:32:28;;;;;;;10.07;4.87;;;;;;;7.87;100.00;98193.19;4964441;28;20697;-55
2022/01/18 11:35:03;;;;;;;10.90;5.97;;;;;;;8.16;100.00;98194.19;4972436;28;20865;-55
2022/01/18 11:37:36;;;;;;;7.03;4.20;;;;;;;7.38;100.00;98197.56;4971964;28;20086;-53
2022/01/18 11:40:08;;;;;;;7.13;3.97;;;;;;;7.19;100.00;98191.59;4965142;28;20443;-53
2022/01/18 11:42:53;;;;;;;7.13;3.40;;;;;;;7.01;100.00;98195.16;4966718;28;20082;-51
2022/01/18 11:45:34;;;;;;;10.85;3.17;;;;;;;6.82;100.00;98200.53;4967240;28;20080;-51
2022/01/18 11:48:06;;;;;;;4.80;3.00;;;;;;;6.46;100.00;98197.97;4967631;28;20062;-50
2022/01/18 11:50:38;;;;;;;7.03;3.42;;;;;;;7.08;100.00;98197.38;4967154;28;20062;-50
2022/01/18 11:53:22;;;;;;;8.40;3.28;;;;;;;7.49;100.00;98188.25;4964915;28;20089;-57
2022/01/18 11:55:51;;;;;;;7.78;3.60;;;;;;;7.44;100.00;98185.03;4970944;28;20136;-54
2022/01/18 11:58:21;;;;;;;7.88;3.80;;;;;;;7.98;100.00;98169.78;4966751;28;20083;-52
2022/01/18 12:00:55;;;;;;;11.13;3.92;;;;;;;7.94;100.00;98165.66;4963761;28;20062;-49
2022/01/18 12:03:27;;;;;;;9.55;4.30;;;;;;;8.20;100.00;98170.28;4963047;28;20066;-55
2022/01/18 12:05:56;;;;;;;8.07;3.60;;;;;;;8.59;97.54;98168.94;4966789;28;20071;-51
2022/01/18 12:08:50;;;;;;;12.07;4.00;;;;;;;8.68;100.00;98159.66;4965375;28;20077;-50
2022/01/18 12:11:36;;;;;;;8.88;4.18;;;;;;;8.54;98.68;98165.72;4949913;28;20467;-54
2022/01/18 12:14:05;;;;;;;7.32;3.65;;;;;;;8.61;94.52;98163.59;4963933;28;20119;-49
2022/01/18 12:16:35;;;;;;;8.07;3.58;;;;;;;8.35;98.55;98154.56;4970939;28;20086;-53
2022/01/18 12:19:06;;;;;;;10.55;4.13;;;;;;;8.14;100.00;98162.75;4964270;28;21531;-51
2022/01/18 12:21:36;;;;;;;6.85;4.38;;;;;;;8.20;100.00;98165.03;4966505;28;20449;-54
2022/01/18 12:24:19;;;;;;;7.43;3.80;;;;;;;7.84;100.00;98170.56;4966210;28;20521;-54